RDN15 KHND-KPSP
Flight info
| Callsign | RDN15 |
|---|---|
| Flight time | 0h 32m |
| Altitude | 25000 |
| Route | OYODA2 BLAQQ ZELMA/N0416F240 RDBUL1 |
| Aircraft | B737/M-SDE2E3FGHIRWXY/LB1 |
Departure
| Time | 2026-05-08 17:50 |
|---|---|
| Airport | Henderson Executive Airport (KHND) |
Arrival
| Time | 2026-05-08 18:22 |
|---|---|
| Airport | Palm Springs International Airport (KPSP) |
| Time | Latitude | Longitude | Altitude | Speed | Heading |
|---|---|---|---|---|---|
| 2026-05-08 17:32 | 35.97381 | -115.13865 | 2442 ft | 0 kts | 179° |
| 2026-05-08 17:42 | 35.97373 | -115.13863 | 2442 ft | 5 kts | 170° |
| 2026-05-08 17:43 | 35.97334 | -115.13844 | 2442 ft | 5 kts | 123° |
| 2026-05-08 17:43 | 35.97328 | -115.13805 | 2442 ft | 4 kts | 91° |
| 2026-05-08 17:43 | 35.97328 | -115.13774 | 2442 ft | 3 kts | 90° |
| 2026-05-08 17:43 | 35.97331 | -115.13752 | 2442 ft | 3 kts | 65° |
| 2026-05-08 17:44 | 35.97354 | -115.13741 | 2442 ft | 6 kts | 2° |
| 2026-05-08 17:44 | 35.97370 | -115.13729 | 2442 ft | 2 kts | 82° |
| 2026-05-08 17:44 | 35.97371 | -115.13710 | 2442 ft | 5 kts | 88° |
| 2026-05-08 17:44 | 35.97393 | -115.13654 | 2442 ft | 8 kts | 358° |
| 2026-05-08 17:45 | 35.97445 | -115.13655 | 2442 ft | 7 kts | 1° |
| 2026-05-08 17:45 | 35.97496 | -115.13653 | 2442 ft | 9 kts | 2° |
| 2026-05-08 17:45 | 35.97609 | -115.13653 | 2442 ft | 22 kts | 2° |
| 2026-05-08 17:45 | 35.97748 | -115.13652 | 2442 ft | 18 kts | 2° |
| 2026-05-08 17:46 | 35.97851 | -115.13651 | 2442 ft | 14 kts | 0° |
| 2026-05-08 17:46 | 35.97942 | -115.13650 | 2442 ft | 13 kts | 0° |
| 2026-05-08 17:46 | 35.98014 | -115.13649 | 2442 ft | 6 kts | 2° |
| 2026-05-08 17:46 | 35.98043 | -115.13646 | 2442 ft | 0 kts | 24° |
| 2026-05-08 17:48 | 35.98044 | -115.13646 | 2442 ft | 0 kts | 24° |
| 2026-05-08 17:49 | 35.98046 | -115.13644 | 2442 ft | 4 kts | 27° |
| 2026-05-08 17:49 | 35.98057 | -115.13537 | 2442 ft | 11 kts | 110° |
| 2026-05-08 17:49 | 35.98030 | -115.13529 | 2442 ft | 0 kts | 180° |
| 2026-05-08 17:50 | 35.98004 | -115.13529 | 2442 ft | 25 kts | 180° |
| 2026-05-08 17:50 | 35.97550 | -115.13534 | 2443 ft | 103 kts | 182° |
| 2026-05-08 17:50 | 35.96627 | -115.13548 | 2538 ft | 153 kts | 181° |
| 2026-05-08 17:50 | 35.95540 | -115.13563 | 3236 ft | 157 kts | 185° |
| 2026-05-08 17:51 | 35.94494 | -115.13829 | 4062 ft | 151 kts | 205° |
| 2026-05-08 17:51 | 35.93519 | -115.14470 | 4594 ft | 171 kts | 213° |
| 2026-05-08 17:51 | 35.92404 | -115.15278 | 4937 ft | 202 kts | 212° |
| 2026-05-08 17:51 | 35.91062 | -115.16139 | 5256 ft | 233 kts | 206° |
| 2026-05-08 17:52 | 35.89411 | -115.16680 | 5602 ft | 259 kts | 188° |
| 2026-05-08 17:52 | 35.87521 | -115.16521 | 5923 ft | 291 kts | 171° |
| 2026-05-08 17:52 | 35.83095 | -115.15350 | 6288 ft | 334 kts | 169° |
| 2026-05-08 17:53 | 35.80843 | -115.14955 | 6750 ft | 324 kts | 174° |
| 2026-05-08 17:53 | 35.78641 | -115.14680 | 6994 ft | 312 kts | 174° |
| 2026-05-08 17:53 | 35.76508 | -115.14576 | 7017 ft | 304 kts | 188° |
| 2026-05-08 17:53 | 35.74530 | -115.15379 | 7029 ft | 296 kts | 211° |
| 2026-05-08 17:54 | 35.73004 | -115.17027 | 7246 ft | 294 kts | 233° |
| 2026-05-08 17:54 | 35.71871 | -115.19127 | 8179 ft | 294 kts | 242° |
| 2026-05-08 17:54 | 35.71000 | -115.21396 | 9224 ft | 294 kts | 250° |
| 2026-05-08 17:54 | 35.70206 | -115.23729 | 10184 ft | 298 kts | 248° |
| 2026-05-08 17:55 | 35.69338 | -115.26067 | 11050 ft | 305 kts | 246° |
| 2026-05-08 17:55 | 35.68281 | -115.28422 | 11603 ft | 325 kts | 239° |
| 2026-05-08 17:55 | 35.66899 | -115.30744 | 11946 ft | 350 kts | 231° |
| 2026-05-08 17:55 | 35.65193 | -115.32975 | 12551 ft | 362 kts | 227° |
| 2026-05-08 17:56 | 35.63462 | -115.35253 | 13363 ft | 367 kts | 229° |
| 2026-05-08 17:56 | 35.61494 | -115.37291 | 14202 ft | 375 kts | 213° |
| 2026-05-08 17:56 | 35.59064 | -115.38519 | 15039 ft | 383 kts | 195° |
| 2026-05-08 17:56 | 35.56395 | -115.38814 | 15825 ft | 392 kts | 178° |
| 2026-05-08 17:57 | 35.53662 | -115.38369 | 16620 ft | 398 kts | 171° |
| 2026-05-08 17:57 | 35.50890 | -115.37983 | 17375 ft | 404 kts | 177° |
| 2026-05-08 17:57 | 35.48062 | -115.37833 | 18109 ft | 409 kts | 178° |
| 2026-05-08 17:57 | 35.45195 | -115.37646 | 18837 ft | 415 kts | 178° |
| 2026-05-08 17:58 | 35.42301 | -115.37449 | 19543 ft | 420 kts | 177° |
| 2026-05-08 17:58 | 35.39370 | -115.37244 | 20246 ft | 424 kts | 177° |
| 2026-05-08 17:58 | 35.36768 | -115.37062 | 20849 ft | 428 kts | 177° |
| 2026-05-08 17:58 | 35.34185 | -115.36881 | 21423 ft | 432 kts | 177° |
| 2026-05-08 17:59 | 35.31173 | -115.36671 | 22062 ft | 437 kts | 177° |
| 2026-05-08 17:59 | 35.28126 | -115.36459 | 22685 ft | 441 kts | 177° |
| 2026-05-08 17:59 | 35.25041 | -115.36244 | 23282 ft | 445 kts | 177° |
| 2026-05-08 17:59 | 35.21944 | -115.36028 | 23870 ft | 449 kts | 177° |
| 2026-05-08 18:00 | 35.18876 | -115.35815 | 24464 ft | 451 kts | 177° |
| 2026-05-08 18:00 | 35.12494 | -115.35371 | 24944 ft | 460 kts | 177° |
| 2026-05-08 18:00 | 35.09280 | -115.35145 | 24945 ft | 466 kts | 176° |
| 2026-05-08 18:01 | 35.06041 | -115.34918 | 24943 ft | 465 kts | 177° |
| 2026-05-08 18:01 | 35.02807 | -115.34693 | 24947 ft | 465 kts | 177° |
| 2026-05-08 18:01 | 34.99577 | -115.34469 | 24950 ft | 464 kts | 177° |
| 2026-05-08 18:01 | 34.96353 | -115.34246 | 24947 ft | 465 kts | 177° |
| 2026-05-08 18:02 | 34.93119 | -115.34022 | 24941 ft | 465 kts | 176° |
| 2026-05-08 18:02 | 34.90984 | -115.33875 | 24938 ft | 465 kts | 176° |
| 2026-05-08 18:02 | 34.86661 | -115.33577 | 24937 ft | 465 kts | 177° |
| 2026-05-08 18:02 | 34.83430 | -115.33354 | 24938 ft | 465 kts | 177° |
| 2026-05-08 18:03 | 34.80195 | -115.33352 | 24938 ft | 464 kts | 184° |
| 2026-05-08 18:03 | 34.77023 | -115.33826 | 24936 ft | 464 kts | 191° |
| 2026-05-08 18:03 | 34.73869 | -115.34778 | 24936 ft | 462 kts | 198° |
| 2026-05-08 18:03 | 34.70836 | -115.36063 | 24936 ft | 461 kts | 202° |
| 2026-05-08 18:04 | 34.67850 | -115.37462 | 24937 ft | 460 kts | 202° |
| 2026-05-08 18:04 | 34.64863 | -115.38827 | 24937 ft | 457 kts | 201° |
| 2026-05-08 18:04 | 34.61892 | -115.40160 | 24936 ft | 454 kts | 201° |
| 2026-05-08 18:04 | 34.58931 | -115.41478 | 24935 ft | 453 kts | 201° |
| 2026-05-08 18:05 | 34.55962 | -115.42784 | 24935 ft | 453 kts | 201° |
| 2026-05-08 18:05 | 34.53007 | -115.44076 | 24936 ft | 451 kts | 201° |
| 2026-05-08 18:05 | 34.50072 | -115.45355 | 24936 ft | 443 kts | 201° |
| 2026-05-08 18:05 | 34.47208 | -115.46602 | 24817 ft | 431 kts | 201° |
| 2026-05-08 18:06 | 34.44396 | -115.47825 | 24394 ft | 426 kts | 201° |
| 2026-05-08 18:06 | 34.41651 | -115.49017 | 23817 ft | 424 kts | 201° |
| 2026-05-08 18:06 | 34.38885 | -115.50218 | 23198 ft | 421 kts | 201° |
| 2026-05-08 18:06 | 34.36102 | -115.51433 | 22563 ft | 418 kts | 202° |
| 2026-05-08 18:07 | 34.33513 | -115.52881 | 21946 ft | 414 kts | 210° |
| 2026-05-08 18:07 | 34.31107 | -115.54761 | 21320 ft | 410 kts | 218° |
| 2026-05-08 18:07 | 34.28928 | -115.56961 | 20695 ft | 406 kts | 224° |
| 2026-05-08 18:07 | 34.26882 | -115.59293 | 20069 ft | 403 kts | 226° |
| 2026-05-08 18:08 | 34.24867 | -115.61631 | 19443 ft | 400 kts | 225° |
| 2026-05-08 18:08 | 34.22854 | -115.63923 | 18819 ft | 398 kts | 225° |
| 2026-05-08 18:08 | 34.20834 | -115.66204 | 18192 ft | 395 kts | 225° |
| 2026-05-08 18:08 | 34.18851 | -115.68434 | 17574 ft | 393 kts | 225° |
| 2026-05-08 18:09 | 34.16837 | -115.70694 | 16942 ft | 390 kts | 225° |
| 2026-05-08 18:09 | 34.14824 | -115.72952 | 16306 ft | 387 kts | 225° |
| 2026-05-08 18:09 | 34.12861 | -115.75152 | 15682 ft | 385 kts | 224° |
| 2026-05-08 18:09 | 34.10889 | -115.77234 | 15066 ft | 383 kts | 220° |
| 2026-05-08 18:10 | 34.08704 | -115.79154 | 14429 ft | 380 kts | 216° |
| 2026-05-08 18:10 | 34.06503 | -115.80915 | 13802 ft | 378 kts | 214° |
| 2026-05-08 18:10 | 34.04347 | -115.82633 | 13197 ft | 375 kts | 215° |
| 2026-05-08 18:10 | 34.02158 | -115.84388 | 12563 ft | 372 kts | 214° |
| 2026-05-08 18:11 | 34.00010 | -115.86118 | 11936 ft | 369 kts | 214° |
| 2026-05-08 18:11 | 33.97888 | -115.87832 | 11310 ft | 366 kts | 214° |
| 2026-05-08 18:11 | 33.95777 | -115.89538 | 10684 ft | 363 kts | 214° |
| 2026-05-08 18:11 | 33.93688 | -115.91226 | 10058 ft | 360 kts | 214° |
| 2026-05-08 18:12 | 33.91644 | -115.92878 | 9458 ft | 357 kts | 214° |
| 2026-05-08 18:12 | 33.89600 | -115.94558 | 8878 ft | 353 kts | 217° |
| 2026-05-08 18:12 | 33.87780 | -115.96507 | 8344 ft | 347 kts | 227° |
| 2026-05-08 18:12 | 33.86308 | -115.98759 | 8150 ft | 330 kts | 237° |
| 2026-05-08 18:13 | 33.85151 | -116.01047 | 8079 ft | 311 kts | 241° |
| 2026-05-08 18:13 | 33.84082 | -116.03236 | 8009 ft | 295 kts | 240° |
| 2026-05-08 18:13 | 33.83055 | -116.05263 | 7954 ft | 280 kts | 239° |
| 2026-05-08 18:13 | 33.82062 | -116.07214 | 7941 ft | 268 kts | 239° |
| 2026-05-08 18:14 | 33.81136 | -116.09117 | 7939 ft | 261 kts | 244° |
| 2026-05-08 18:14 | 33.80235 | -116.11006 | 7847 ft | 261 kts | 237° |
| 2026-05-08 18:14 | 33.79209 | -116.12832 | 7413 ft | 264 kts | 237° |
| 2026-05-08 18:14 | 33.78209 | -116.14644 | 7059 ft | 256 kts | 239° |
| 2026-05-08 18:15 | 33.77291 | -116.16439 | 6675 ft | 252 kts | 239° |
| 2026-05-08 18:15 | 33.76388 | -116.18235 | 6332 ft | 246 kts | 239° |
| 2026-05-08 18:15 | 33.75521 | -116.19965 | 5965 ft | 237 kts | 239° |
| 2026-05-08 18:15 | 33.74667 | -116.21625 | 5588 ft | 230 kts | 238° |
| 2026-05-08 18:16 | 33.73831 | -116.23245 | 5210 ft | 225 kts | 238° |
| 2026-05-08 18:16 | 33.73021 | -116.24810 | 4928 ft | 215 kts | 238° |
| 2026-05-08 18:16 | 33.72259 | -116.26314 | 4844 ft | 207 kts | 240° |
| 2026-05-08 18:16 | 33.71619 | -116.27850 | 4696 ft | 204 kts | 247° |
| 2026-05-08 18:17 | 33.71182 | -116.29454 | 4453 ft | 201 kts | 257° |
| 2026-05-08 18:17 | 33.70970 | -116.31081 | 4201 ft | 194 kts | 267° |
| 2026-05-08 18:17 | 33.70989 | -116.32692 | 3954 ft | 191 kts | 276° |
| 2026-05-08 18:17 | 33.71210 | -116.34240 | 3733 ft | 186 kts | 284° |
| 2026-05-08 18:18 | 33.71593 | -116.35700 | 3481 ft | 180 kts | 291° |
| 2026-05-08 18:18 | 33.72109 | -116.37013 | 3269 ft | 168 kts | 296° |
| 2026-05-08 18:18 | 33.72580 | -116.38239 | 3002 ft | 158 kts | 294° |
| 2026-05-08 18:18 | 33.73025 | -116.39417 | 2747 ft | 152 kts | 294° |
| 2026-05-08 18:19 | 33.73452 | -116.40547 | 2483 ft | 146 kts | 294° |
| 2026-05-08 18:19 | 33.73909 | -116.41636 | 2116 ft | 148 kts | 301° |
| 2026-05-08 18:19 | 33.74523 | -116.42584 | 1944 ft | 138 kts | 311° |
| 2026-05-08 18:19 | 33.75182 | -116.43373 | 1787 ft | 133 kts | 315° |
| 2026-05-08 18:20 | 33.75845 | -116.44112 | 1636 ft | 127 kts | 316° |
| 2026-05-08 18:20 | 33.76492 | -116.44821 | 1475 ft | 128 kts | 317° |
| 2026-05-08 18:20 | 33.77180 | -116.45531 | 1425 ft | 132 kts | 319° |
| 2026-05-08 18:20 | 33.77898 | -116.46230 | 1367 ft | 133 kts | 324° |
| 2026-05-08 18:21 | 33.78640 | -116.46899 | 1273 ft | 137 kts | 323° |
| 2026-05-08 18:21 | 33.79413 | -116.47603 | 1168 ft | 142 kts | 325° |
| 2026-05-08 18:21 | 33.80182 | -116.48336 | 1109 ft | 138 kts | 334° |
| 2026-05-08 18:21 | 33.80984 | -116.49013 | 832 ft | 144 kts | 329° |
| 2026-05-08 18:22 | 33.81800 | -116.49724 | 633 ft | 144 kts | 322° |
| 2026-05-08 18:22 | 33.82583 | -116.50439 | 494 ft | 134 kts | 327° |
| 2026-05-08 18:22 | 33.83220 | -116.50992 | 486 ft | 83 kts | 326° |
| 2026-05-08 18:22 | 33.83514 | -116.51251 | 485 ft | 46 kts | 320° |
| 2026-05-08 18:23 | 33.83663 | -116.51419 | 485 ft | 13 kts | 260° |
| 2026-05-08 18:23 | 33.83604 | -116.51487 | 485 ft | 12 kts | 193° |
| 2026-05-08 18:23 | 33.83532 | -116.51488 | 485 ft | 8 kts | 160° |
| 2026-05-08 18:23 | 33.83454 | -116.51413 | 485 ft | 25 kts | 140° |
| 2026-05-08 18:24 | 33.83288 | -116.51266 | 485 ft | 30 kts | 139° |
| 2026-05-08 18:24 | 33.83137 | -116.51131 | 485 ft | 24 kts | 147° |
| 2026-05-08 18:24 | 33.83020 | -116.51029 | 485 ft | 17 kts | 150° |
| 2026-05-08 18:24 | 33.82939 | -116.50957 | 485 ft | 13 kts | 143° |
| 2026-05-08 18:25 | 33.82869 | -116.50887 | 485 ft | 13 kts | 136° |
| 2026-05-08 18:25 | 33.82788 | -116.50816 | 485 ft | 18 kts | 145° |
| 2026-05-08 18:25 | 33.82688 | -116.50723 | 485 ft | 17 kts | 145° |
| 2026-05-08 18:25 | 33.82614 | -116.50682 | 485 ft | 4 kts | 216° |
| 2026-05-08 18:26 | 33.82578 | -116.50742 | 485 ft | 8 kts | 257° |
| 2026-05-08 18:26 | 33.82578 | -116.50797 | 485 ft | 3 kts | 270° |
| 2026-05-08 18:26 | 33.82578 | -116.50810 | 485 ft | 0 kts | 270° |